Time;durP1;ratioP1;P1;durP2;ratioP2;P2;SDS_P1;SDS_P2;PMS_P1;PMS_P2;Temp;Humidity;BMP_temperature;BMP_pressure;BME280_temperature;BME280_humidity;BME280_pressure;Samples;Min_cycle;Max_cycle;Signal;HPM_P1;HPM_P2
2022/05/31 00:02:14;;;;;;;2.28;1.98;;;10.00;99.90;;;;;;5103546;28;20217;-79
2022/05/31 00:04:40;;;;;;;3.08;2.00;;;9.90;99.90;;;;;;5105824;28;20175;-78
2022/05/31 00:07:05;;;;;;;2.15;2.03;;;9.90;99.90;;;;;;5091172;28;20182;-78
2022/05/31 00:09:31;;;;;;;2.40;2.17;;;9.80;99.90;;;;;;5091049;28;20195;-77
2022/05/31 00:11:58;;;;;;;2.38;2.15;;;9.80;99.90;;;;;;5094188;28;20177;-77
2022/05/31 00:14:25;;;;;;;2.00;1.90;;;9.80;99.90;;;;;;5089636;28;20178;-77
2022/05/31 00:16:51;;;;;;;2.40;2.20;;;9.80;99.90;;;;;;5085000;28;20182;-76
2022/05/31 00:19:18;;;;;;;2.10;2.00;;;9.80;99.90;;;;;;5083897;28;20206;-77
2022/05/31 00:21:51;;;;;;;2.45;2.28;;;9.80;99.90;;;;;;5099386;28;20343;-78
2022/05/31 00:24:20;;;;;;;4.15;2.10;;;9.80;99.90;;;;;;5093406;28;20175;-78
2022/05/31 00:26:46;;;;;;;4.13;2.35;;;9.70;99.90;;;;;;5109073;28;20181;-79
2022/05/31 00:29:13;;;;;;;2.28;2.17;;;9.70;99.90;;;;;;5099656;28;20210;-78
2022/05/31 00:31:45;;;;;;;2.42;2.30;;;9.60;99.90;;;;;;5095638;28;20218;-78
2022/05/31 00:34:12;;;;;;;2.75;2.55;;;9.60;99.90;;;;;;5097503;28;20183;-78
2022/05/31 00:36:40;;;;;;;2.58;2.38;;;9.50;99.90;;;;;;5105471;28;20175;-77
2022/05/31 00:39:07;;;;;;;2.45;2.35;;;9.50;99.90;;;;;;5095721;28;20178;-77
2022/05/31 00:41:34;;;;;;;2.97;2.22;;;9.50;99.90;;;;;;5091087;28;20256;-78
2022/05/31 00:44:11;;;;;;;2.72;2.30;;;9.50;99.90;;;;;;5091468;28;20170;-78
2022/05/31 00:46:53;;;;;;;2.97;2.70;;;9.50;99.90;;;;;;5092506;28;20179;-78
2022/05/31 00:49:28;;;;;;;2.60;2.40;;;9.50;99.90;;;;;;5088645;28;20555;-77
2022/05/31 00:51:56;;;;;;;2.42;2.33;;;9.40;99.90;;;;;;5093289;28;20670;-77
2022/05/31 00:54:26;;;;;;;2.63;2.35;;;9.30;99.90;;;;;;5098212;28;20521;-78
2022/05/31 00:56:53;;;;;;;2.30;2.20;;;9.30;99.90;;;;;;5092434;28;20182;-78
2022/05/31 00:59:28;;;;;;;5.72;2.35;;;9.30;99.90;;;;;;5094498;28;20259;-78
2022/05/31 01:01:56;;;;;;;2.60;2.40;;;9.20;99.90;;;;;;5091575;28;20193;-78
2022/05/31 01:04:41;;;;;;;2.65;2.22;;;9.10;99.90;;;;;;5088571;28;20538;-77
2022/05/31 01:07:07;;;;;;;2.50;2.30;;;9.10;99.90;;;;;;5091526;28;20197;-77
2022/05/31 01:09:33;;;;;;;2.40;2.30;;;9.10;99.90;;;;;;5094967;28;20202;-77
2022/05/31 01:12:00;;;;;;;2.30;2.20;;;9.00;99.90;;;;;;5093653;28;20230;-78
2022/05/31 01:14:27;;;;;;;2.10;2.00;;;9.00;99.90;;;;;;5090823;28;20213;-77
2022/05/31 01:17:08;;;;;;;3.40;2.25;;;9.00;99.90;;;;;;5099799;28;20228;-77
2022/05/31 01:20:19;;;;;;;2.40;2.30;;;9.00;99.90;;;;;;5097053;28;20253;-78
2022/05/31 01:22:20;;;;;;;2.15;2.05;;;8.90;99.90;;;;;;5082734;28;20218;-78
2022/05/31 01:24:50;;;;;;;2.65;2.45;;;8.90;99.90;;;;;;5102182;28;20246;-78
2022/05/31 01:27:40;;;;;;;2.60;2.40;;;8.80;99.90;;;;;;5098936;28;20550;-78
2022/05/31 01:30:09;;;;;;;2.67;2.47;;;8.80;99.90;;;;;;5088095;28;20217;-78
2022/05/31 01:32:41;;;;;;;2.65;2.47;;;8.70;99.90;;;;;;5097309;28;20183;-79
2022/05/31 01:35:24;;;;;;;3.50;2.65;;;8.70;99.90;;;;;;5097929;28;20178;-78
2022/05/31 01:37:56;;;;;;;2.60;2.50;;;8.70;99.90;;;;;;5094809;28;20610;-77
2022/05/31 01:40:45;;;;;;;2.65;2.50;;;8.80;99.90;;;;;;5092010;28;20210;-77
2022/05/31 01:43:11;;;;;;;2.67;2.30;;;8.80;99.90;;;;;;5083459;28;20660;-77
2022/05/31 01:45:54;;;;;;;2.53;2.42;;;8.90;99.90;;;;;;5095407;28;20174;-78
2022/05/31 01:48:21;;;;;;;2.85;2.65;;;8.90;99.90;;;;;;5086179;28;20569;-77
2022/05/31 01:50:47;;;;;;;2.80;2.65;;;8.80;99.90;;;;;;5092193;28;20688;-77
2022/05/31 01:53:14;;;;;;;3.13;2.55;;;8.80;99.90;;;;;;5087804;28;20195;-77
2022/05/31 01:55:43;;;;;;;2.75;2.63;;;8.70;99.90;;;;;;5101333;28;20198;-77
2022/05/31 01:58:16;;;;;;;3.72;3.00;;;8.70;99.90;;;;;;5092588;28;20179;-77
2022/05/31 02:00:42;;;;;;;5.53;2.90;;;8.60;99.90;;;;;;5112134;28;20215;-77
2022/05/31 02:03:08;;;;;;;3.50;3.20;;;8.70;99.90;;;;;;5096113;28;20262;-78
2022/05/31 02:05:34;;;;;;;2.88;2.67;;;8.70;99.90;;;;;;5094034;28;20178;-78
2022/05/31 02:08:03;;;;;;;2.90;2.70;;;8.60;99.90;;;;;;5104943;28;20455;-77
2022/05/31 02:10:29;;;;;;;4.22;3.20;;;8.60;99.90;;;;;;5100897;28;20214;-78
2022/05/31 02:12:55;;;;;;;3.40;2.50;;;8.50;99.90;;;;;;5094767;28;20182;-78
2022/05/31 02:15:23;;;;;;;2.58;2.47;;;8.40;99.90;;;;;;5092060;28;20187;-78
2022/05/31 02:17:49;;;;;;;3.00;2.80;;;8.40;99.90;;;;;;5101073;28;20268;-77
2022/05/31 02:20:14;;;;;;;3.00;2.80;;;8.30;99.90;;;;;;5089670;28;20631;-77
2022/05/31 02:22:40;;;;;;;2.67;2.47;;;8.20;99.90;;;;;;5096864;28;20593;-77
2022/05/31 02:25:07;;;;;;;2.67;2.50;;;8.20;99.90;;;;;;5098913;28;20492;-78
2022/05/31 02:27:33;;;;;;;3.60;3.38;;;8.10;99.90;;;;;;5096025;28;20576;-77
2022/05/31 02:29:59;;;;;;;2.75;2.60;;;8.10;99.90;;;;;;5091193;28;20205;-76
2022/05/31 02:32:24;;;;;;;3.25;2.95;;;8.00;99.90;;;;;;5096846;28;20214;-77
2022/05/31 02:34:51;;;;;;;3.08;2.88;;;8.00;99.90;;;;;;5092956;28;20183;-76
2022/05/31 02:37:18;;;;;;;3.25;2.78;;;8.00;99.90;;;;;;5092126;28;20246;-77
2022/05/31 02:39:45;;;;;;;2.70;2.53;;;7.90;99.90;;;;;;5090509;28;20234;-76
2022/05/31 02:42:11;;;;;;;2.88;2.65;;;8.00;99.90;;;;;;5094102;28;20553;-76
2022/05/31 02:44:37;;;;;;;3.42;2.88;;;8.00;99.90;;;;;;5086304;28;20217;-76
2022/05/31 02:47:04;;;;;;;3.00;2.80;;;8.00;99.90;;;;;;5093614;28;20186;-77
2022/05/31 02:49:29;;;;;;;2.58;2.47;;;8.00;99.90;;;;;;5091948;28;20195;-76
2022/05/31 02:51:58;;;;;;;3.08;2.88;;;8.10;99.90;;;;;;5088851;28;20358;-76
2022/05/31 02:54:23;;;;;;;3.22;2.92;;;8.00;99.90;;;;;;5087993;28;20212;-76
2022/05/31 02:56:49;;;;;;;3.05;2.85;;;8.00;99.90;;;;;;5095202;28;20649;-76
2022/05/31 02:59:15;;;;;;;3.03;2.83;;;7.90;99.90;;;;;;5089252;28;20210;-76
2022/05/31 03:01:42;;;;;;;2.75;2.55;;;7.90;99.90;;;;;;5089918;28;21097;-76
2022/05/31 03:04:09;;;;;;;2.95;2.85;;;7.80;99.90;;;;;;5085475;28;20238;-76
2022/05/31 03:06:35;;;;;;;3.00;2.80;;;7.90;99.90;;;;;;5082919;28;20198;-76
2022/05/31 03:09:01;;;;;;;2.50;2.40;;;7.90;99.90;;;;;;5080096;28;20713;-77
2022/05/31 03:11:39;;;;;;;3.08;2.88;;;7.90;99.90;;;;;;5091221;28;20178;-76
2022/05/31 03:14:30;;;;;;;3.13;2.92;;;7.90;99.90;;;;;;5086731;28;20653;-77
2022/05/31 03:17:10;;;;;;;3.35;3.15;;;7.90;99.90;;;;;;5081758;28;20221;-75
2022/05/31 03:19:40;;;;;;;3.50;3.25;;;7.90;99.90;;;;;;5081757;28;20570;-76
2022/05/31 03:22:11;;;;;;;2.65;2.55;;;7.80;99.90;;;;;;5088117;28;20270;-76
2022/05/31 03:24:46;;;;;;;3.45;2.83;;;7.90;99.90;;;;;;5086883;28;20228;-77
2022/05/31 03:27:12;;;;;;;3.03;2.83;;;7.80;99.90;;;;;;5084712;28;20645;-78
2022/05/31 03:29:42;;;;;;;4.03;3.60;;;7.80;99.90;;;;;;5089361;28;20203;-77
2022/05/31 03:32:09;;;;;;;3.60;2.80;;;7.80;99.90;;;;;;5080188;28;20180;-76
2022/05/31 03:34:36;;;;;;;3.10;2.80;;;7.80;99.90;;;;;;5090419;28;20265;-76
2022/05/31 03:37:02;;;;;;;3.05;2.85;;;7.70;99.90;;;;;;5088220;28;20178;-76
2022/05/31 03:39:28;;;;;;;3.15;2.95;;;7.70;99.90;;;;;;5076615;28;20205;-77
2022/05/31 03:41:53;;;;;;;3.45;3.25;;;7.80;99.90;;;;;;5084980;28;20198;-77
2022/05/31 03:44:19;;;;;;;3.42;3.20;;;7.80;99.90;;;;;;5080139;28;20176;-77
2022/05/31 03:46:47;;;;;;;3.42;3.20;;;7.80;99.90;;;;;;5085175;28;20647;-77
2022/05/31 03:49:14;;;;;;;3.50;3.20;;;7.90;99.90;;;;;;5086763;28;20244;-78
2022/05/31 03:51:40;;;;;;;3.13;2.92;;;7.80;99.90;;;;;;5086170;28;20183;-78
2022/05/31 03:54:06;;;;;;;4.18;3.65;;;7.70;99.90;;;;;;5089836;28;20185;-77
2022/05/31 03:56:31;;;;;;;3.63;3.33;;;7.80;99.90;;;;;;5084440;28;20527;-77
2022/05/31 03:58:57;;;;;;;4.68;3.00;;;7.70;99.90;;;;;;5091070;28;20272;-77
2022/05/31 04:01:23;;;;;;;3.40;3.20;;;7.70;99.90;;;;;;5086140;28;20674;-77
2022/05/31 04:03:48;;;;;;;3.25;3.05;;;7.80;99.90;;;;;;5080805;28;20195;-77
2022/05/31 04:06:14;;;;;;;3.85;3.13;;;7.80;99.90;;;;;;5086351;28;20174;-77
2022/05/31 04:08:40;;;;;;;3.00;2.80;;;7.80;99.90;;;;;;5090210;28;20740;-79
2022/05/31 04:11:05;;;;;;;2.72;2.63;;;7.90;99.90;;;;;;5085331;28;20195;-76
2022/05/31 04:13:31;;;;;;;3.03;2.80;;;8.00;99.90;;;;;;5087337;28;20214;-76
2022/05/31 04:16:10;;;;;;;3.38;3.17;;;8.00;99.90;;;;;;5089970;28;20227;-78
2022/05/31 04:18:37;;;;;;;3.03;2.80;;;8.10;99.90;;;;;;5090290;28;20183;-78
2022/05/31 04:21:06;;;;;;;2.92;2.75;;;8.10;99.90;;;;;;5102033;28;20307;-77
2022/05/31 04:26:16;;;;;;;2.55;2.45;;;8.30;99.90;;;;;;5090826;28;20216;-79
2022/05/31 04:28:42;;;;;;;3.33;3.13;;;8.40;99.90;;;;;;5086515;28;20741;-78
2022/05/31 04:31:09;;;;;;;3.38;3.08;;;8.50;99.90;;;;;;5088911;28;20317;-76
2022/05/31 04:33:34;;;;;;;3.25;3.05;;;8.60;99.90;;;;;;5093502;28;20206;-73
2022/05/31 04:36:08;;;;;;;3.25;2.97;;;8.70;99.90;;;;;;5090170;28;20179;-75
2022/05/31 04:38:35;;;;;;;3.63;3.05;;;8.80;99.90;;;;;;5096279;28;20187;-76
2022/05/31 04:41:01;;;;;;;3.45;2.75;;;8.90;99.90;;;;;;5084984;28;20207;-77
2022/05/31 04:43:27;;;;;;;3.05;2.85;;;8.90;99.90;;;;;;5079682;28;20183;-76
2022/05/31 04:45:52;;;;;;;3.92;3.10;;;9.10;99.90;;;;;;5093633;28;20265;-77
2022/05/31 04:48:18;;;;;;;3.47;3.28;;;9.20;99.90;;;;;;5090407;28;20185;-78
2022/05/31 04:50:44;;;;;;;3.50;3.30;;;9.30;99.90;;;;;;5093918;28;20589;-78
2022/05/31 04:53:10;;;;;;;3.47;3.17;;;9.40;99.90;;;;;;5100574;28;20182;-78
2022/05/31 04:55:35;;;;;;;3.35;2.95;;;9.60;99.90;;;;;;5099395;28;20705;-77
2022/05/31 04:58:01;;;;;;;3.15;2.83;;;9.70;99.90;;;;;;5082942;28;20664;-77
2022/05/31 05:00:27;;;;;;;3.55;3.33;;;9.80;99.90;;;;;;5081552;28;20720;-74
2022/05/31 05:02:52;;;;;;;4.13;3.10;;;9.90;99.90;;;;;;5081910;28;20179;-73
2022/05/31 05:05:18;;;;;;;4.20;3.53;;;10.00;99.90;;;;;;5085431;28;20175;-73
2022/05/31 05:07:44;;;;;;;3.60;3.38;;;10.10;99.90;;;;;;5088294;28;20218;-73
2022/05/31 05:10:10;;;;;;;3.47;2.58;;;10.10;99.90;;;;;;5094132;28;20199;-73
2022/05/31 05:12:36;;;;;;;3.45;3.15;;;10.20;99.90;;;;;;5082824;28;20183;-73
2022/05/31 05:15:05;;;;;;;4.20;2.75;;;10.30;99.90;;;;;;5089099;28;20614;-74
2022/05/31 05:17:31;;;;;;;3.28;3.05;;;10.40;99.90;;;;;;5085008;28;20236;-74
2022/05/31 05:19:57;;;;;;;3.38;3.17;;;10.50;99.90;;;;;;5092132;28;20202;-73
2022/05/31 05:22:22;;;;;;;3.83;3.53;;;10.60;99.90;;;;;;5095695;28;20286;-74
2022/05/31 05:24:48;;;;;;;3.63;3.33;;;10.70;99.90;;;;;;5101368;28;20183;-74
2022/05/31 05:27:14;;;;;;;3.83;3.63;;;10.80;99.90;;;;;;5084878;28;20186;-72
2022/05/31 05:32:23;;;;;;;4.55;3.50;;;11.10;99.90;;;;;;5093825;28;20656;-73
2022/05/31 05:34:52;;;;;;;3.85;3.55;;;11.20;99.90;;;;;;5099582;28;20195;-72
2022/05/31 05:37:19;;;;;;;3.45;3.25;;;11.30;99.90;;;;;;5101110;28;20186;-72
2022/05/31 05:39:45;;;;;;;3.80;3.50;;;11.40;99.90;;;;;;5096547;28;20206;-75
2022/05/31 05:42:12;;;;;;;3.70;3.40;;;11.50;99.90;;;;;;5092160;28;20206;-73
2022/05/31 05:44:37;;;;;;;3.58;3.38;;;11.60;99.90;;;;;;5088521;28;20247;-72
2022/05/31 05:47:14;;;;;;;3.13;2.92;;;11.70;99.90;;;;;;5089555;28;20679;-75
2022/05/31 05:49:40;;;;;;;5.95;3.95;;;11.80;99.90;;;;;;5094170;28;20670;-73
2022/05/31 05:52:09;;;;;;;3.58;3.28;;;11.90;99.90;;;;;;5089158;28;20198;-75
2022/05/31 05:54:35;;;;;;;3.40;3.20;;;11.90;99.90;;;;;;5089318;28;20191;-74
2022/05/31 05:57:01;;;;;;;3.83;3.38;;;12.00;99.90;;;;;;5082938;28;20189;-76
2022/05/31 05:59:26;;;;;;;4.03;3.75;;;12.10;99.90;;;;;;5091132;28;20215;-74
2022/05/31 06:01:58;;;;;;;3.42;3.13;;;12.20;99.90;;;;;;5087524;28;20193;-74
2022/05/31 06:04:35;;;;;;;3.83;3.40;;;12.30;99.90;;;;;;5094716;28;20705;-75
2022/05/31 06:07:16;;;;;;;3.65;3.35;;;12.40;99.90;;;;;;5107836;28;20169;-74
2022/05/31 06:09:47;;;;;;;3.22;3.03;;;12.60;99.90;;;;;;5111818;28;20263;-75
2022/05/31 06:12:17;;;;;;;3.50;3.22;;;12.70;99.90;;;;;;5088151;28;20239;-75
2022/05/31 06:14:50;;;;;;;3.20;3.00;;;12.70;99.90;;;;;;5093634;28;20786;-73
2022/05/31 06:17:44;;;;;;;3.05;2.75;;;12.80;99.90;;;;;;5096712;28;20179;-79
2022/05/31 06:20:11;;;;;;;3.50;2.72;;;12.90;99.90;;;;;;5091749;28;20226;-72
2022/05/31 06:22:39;;;;;;;2.88;2.72;;;13.10;99.90;;;;;;5090461;28;20261;-70
2022/05/31 06:25:05;;;;;;;2.60;2.40;;;13.10;99.90;;;;;;5100040;28;20812;-71
2022/05/31 06:27:31;;;;;;;2.25;2.15;;;13.30;99.90;;;;;;5085473;28;20203;-71
2022/05/31 06:29:57;;;;;;;2.35;2.25;;;13.30;99.90;;;;;;5093465;28;20685;-71
2022/05/31 06:32:23;;;;;;;2.80;2.60;;;13.50;99.90;;;;;;5091036;28;20183;-71
2022/05/31 06:34:48;;;;;;;5.00;2.70;;;13.60;99.90;;;;;;5085765;28;20554;-74
2022/05/31 06:37:16;;;;;;;2.53;2.33;;;13.70;99.90;;;;;;5088371;28;20316;-75
2022/05/31 06:39:44;;;;;;;2.60;2.40;;;13.80;99.90;;;;;;5088781;28;20221;-75
2022/05/31 06:42:10;;;;;;;2.15;2.05;;;14.00;99.90;;;;;;5097471;28;20205;-77
2022/05/31 06:44:38;;;;;;;2.13;1.95;;;14.10;99.90;;;;;;5088358;28;20251;-75
2022/05/31 06:47:05;;;;;;;2.22;2.03;;;14.20;99.90;;;;;;5089404;28;20175;-74
2022/05/31 06:49:32;;;;;;;2.78;2.50;;;14.40;99.90;;;;;;5095066;28;20384;-74
2022/05/31 06:57:33;;;;;;;2.55;2.45;;;14.70;99.90;;;;;;5087229;28;20240;-73
2022/05/31 06:59:59;;;;;;;2.30;2.13;;;14.90;99.90;;;;;;5097767;28;20198;-71
2022/05/31 07:02:27;;;;;;;2.20;2.10;;;15.00;99.90;;;;;;5099460;28;20209;-76
2022/05/31 07:04:53;;;;;;;2.38;2.17;;;15.10;99.90;;;;;;5084603;28;20311;-71
2022/05/31 07:07:19;;;;;;;2.17;2.08;;;15.20;99.90;;;;;;5080988;28;20676;-74
2022/05/31 07:09:45;;;;;;;2.30;2.20;;;15.20;99.90;;;;;;5089812;28;20243;-73
2022/05/31 07:12:12;;;;;;;1.67;1.58;;;15.40;99.90;;;;;;5090771;28;20182;-78
2022/05/31 07:14:37;;;;;;;2.05;1.95;;;15.50;99.90;;;;;;5086421;28;20187;-80
2022/05/31 07:17:04;;;;;;;1.70;1.70;;;15.60;99.90;;;;;;5083887;28;20174;-73
2022/05/31 07:19:30;;;;;;;3.30;2.10;;;15.70;99.90;;;;;;5087201;28;20686;-73
2022/05/31 07:22:00;;;;;;;1.85;1.75;;;15.80;99.90;;;;;;5086085;28;20217;-71
2022/05/31 07:24:27;;;;;;;1.65;1.63;;;15.90;99.90;;;;;;5090042;28;20241;-74
2022/05/31 07:26:53;;;;;;;2.90;2.05;;;16.00;99.90;;;;;;5091705;28;20181;-71
2022/05/31 07:29:19;;;;;;;4.10;2.10;;;16.10;99.90;;;;;;5094956;28;20206;-74
2022/05/31 07:31:45;;;;;;;1.73;1.63;;;16.20;99.90;;;;;;5095110;28;20179;-71
2022/05/31 07:34:14;;;;;;;2.00;1.90;;;16.30;99.90;;;;;;5086285;28;20249;-73
2022/05/31 07:36:41;;;;;;;1.90;1.80;;;16.40;99.90;;;;;;5088013;28;20174;-74
2022/05/31 07:39:10;;;;;;;1.55;1.52;;;16.50;99.90;;;;;;5084015;28;20241;-72
2022/05/31 07:41:36;;;;;;;1.50;1.50;;;16.70;99.90;;;;;;5090093;28;20216;-76
2022/05/31 07:44:02;;;;;;;1.58;1.48;;;16.80;99.90;;;;;;5098862;28;20179;-73
2022/05/31 07:46:29;;;;;;;1.67;1.58;;;16.90;99.90;;;;;;5080129;28;20175;-72
2022/05/31 07:48:56;;;;;;;1.80;1.70;;;17.00;99.90;;;;;;5093139;28;20171;-77
2022/05/31 07:51:23;;;;;;;1.73;1.63;;;17.10;99.90;;;;;;5086775;28;20182;-74
2022/05/31 07:53:48;;;;;;;2.97;1.67;;;17.20;99.90;;;;;;5084238;28;20722;-75
2022/05/31 07:56:14;;;;;;;1.85;1.75;;;17.30;99.90;;;;;;5095846;28;20179;-72
2022/05/31 07:58:45;;;;;;;1.75;1.65;;;17.40;99.90;;;;;;5097008;28;20550;-72
2022/05/31 08:01:25;;;;;;;1.55;1.45;;;17.40;99.90;;;;;;5089985;28;20297;-78
2022/05/31 08:03:52;;;;;;;2.00;1.90;;;17.50;99.90;;;;;;5090070;28;20591;-76
2022/05/31 08:06:29;;;;;;;1.60;1.60;;;17.60;99.90;;;;;;5089725;28;20180;-73
2022/05/31 08:08:56;;;;;;;1.70;1.60;;;17.60;99.90;;;;;;5087504;28;20178;-73
2022/05/31 08:11:28;;;;;;;2.20;2.10;;;17.70;99.90;;;;;;5087824;28;20273;-74
2022/05/31 08:13:55;;;;;;;1.50;1.50;;;17.80;99.90;;;;;;5087496;28;20175;-76
2022/05/31 08:16:23;;;;;;;1.40;1.40;;;17.90;99.90;;;;;;5086193;28;20183;-74
2022/05/31 08:18:49;;;;;;;2.15;2.05;;;18.00;99.90;;;;;;5088602;28;20649;-71
2022/05/31 08:21:20;;;;;;;1.80;1.70;;;18.10;99.90;;;;;;5084223;28;20202;-71
2022/05/31 08:23:45;;;;;;;1.73;1.63;;;18.00;99.90;;;;;;5091097;28;20175;-77
2022/05/31 08:26:11;;;;;;;1.90;1.80;;;18.00;99.90;;;;;;5085054;28;20552;-74
2022/05/31 08:28:38;;;;;;;1.73;1.63;;;18.00;99.90;;;;;;5082192;28;20195;-76
2022/05/31 08:31:10;;;;;;;2.25;1.70;;;18.10;99.90;;;;;;5083600;28;20226;-75
2022/05/31 08:33:36;;;;;;;4.40;2.03;;;18.20;99.90;;;;;;5086693;28;20279;-75
2022/05/31 08:36:02;;;;;;;1.75;1.75;;;18.40;99.90;;;;;;5086357;28;20265;-73
2022/05/31 08:38:28;;;;;;;3.13;2.20;;;18.40;99.90;;;;;;5092940;28;20244;-74
2022/05/31 08:41:09;;;;;;;1.70;1.60;;;18.60;99.90;;;;;;5091685;28;20210;-73
2022/05/31 08:43:46;;;;;;;1.88;1.80;;;18.70;99.90;;;;;;5086924;28;20178;-72
2022/05/31 08:46:25;;;;;;;2.08;1.98;;;18.80;99.90;;;;;;5079006;28;20261;-74
2022/05/31 08:52:43;;;;;;;2.65;1.77;;;18.70;99.90;;;;;;5062457;28;20190;-74
2022/05/31 08:58:19;;;;;;;2.20;2.10;;;19.00;99.90;;;;;;5093191;28;20177;-76
2022/05/31 09:00:46;;;;;;;1.95;1.85;;;19.30;99.90;;;;;;5088430;28;20206;-76
2022/05/31 09:03:21;;;;;;;2.03;1.85;;;19.40;99.90;;;;;;5094212;28;20186;-72
2022/05/31 09:06:07;;;;;;;2.65;1.90;;;19.40;99.90;;;;;;5100924;28;20440;-74
2022/05/31 09:08:53;;;;;;;1.80;1.70;;;19.60;99.90;;;;;;5092531;28;20181;-76
2022/05/31 09:11:34;;;;;;;3.50;1.75;;;19.80;99.90;;;;;;5079326;28;20229;-74
2022/05/31 09:14:31;;;;;;;1.52;1.45;;;20.00;99.90;;;;;;5082257;28;20186;-74
2022/05/31 09:17:12;;;;;;;1.90;1.80;;;20.20;99.90;;;;;;5076614;28;20262;-77
2022/05/31 09:19:44;;;;;;;2.05;1.83;;;20.20;99.90;;;;;;5090420;28;20716;-74
2022/05/31 09:22:11;;;;;;;3.78;2.13;;;20.40;99.60;;;;;;5086419;28;20227;-75
2022/05/31 09:24:42;;;;;;;2.10;1.65;;;20.50;97.00;;;;;;5093606;28;20661;-74
2022/05/31 09:27:24;;;;;;;1.42;1.38;;;20.70;97.40;;;;;;5094511;28;20175;-74
2022/05/31 09:30:22;;;;;;;2.83;1.55;;;21.00;94.20;;;;;;5088015;28;20227;-75
2022/05/31 09:33:07;;;;;;;2.13;1.60;;;21.60;96.40;;;;;;5068485;28;20550;-75
2022/05/31 09:35:52;;;;;;;1.65;1.58;;;23.70;94.40;;;;;;5094414;28;20271;-74
2022/05/31 09:38:56;;;;;;;1.50;1.50;;;26.70;85.10;;;;;;5090820;28;20174;-75
2022/05/31 09:42:03;;;;;;;2.97;1.80;;;28.60;67.10;;;;;;5087389;28;20669;-76
2022/05/31 09:44:42;;;;;;;1.55;1.45;;;30.70;57.00;;;;;;5061492;28;20288;-76
2022/05/31 09:47:11;;;;;;;1.20;1.20;;;31.70;52.40;;;;;;5091650;28;20182;-73
2022/05/31 09:49:43;;;;;;;1.42;1.33;;;33.10;50.30;;;;;;5088001;28;20572;-75
2022/05/31 09:52:20;;;;;;;2.33;1.55;;;34.20;47.50;;;;;;5089824;28;20178;-73
2022/05/31 09:58:12;;;;;;;1.30;1.27;;;34.90;43.40;;;;;;5082271;28;20671;-74
2022/05/31 10:01:04;;;;;;;1.60;1.60;;;35.20;44.30;;;;;;5096926;28;20202;-71
2022/05/31 10:03:37;;;;;;;1.20;1.20;;;36.30;41.80;;;;;;5086054;28;20179;-72
2022/05/31 10:06:11;;;;;;;1.38;1.00;;;36.40;41.50;;;;;;5090064;28;20170;-74
2022/05/31 10:08:37;;;;;;;2.13;1.25;;;36.70;40.10;;;;;;5085517;28;20182;-76
2022/05/31 10:11:08;;;;;;;2.35;1.35;;;37.30;40.20;;;;;;5089964;28;20213;-76
2022/05/31 10:13:54;;;;;;;1.10;1.00;;;37.70;39.90;;;;;;5091279;28;20679;-72
2022/05/31 10:16:25;;;;;;;1.73;1.30;;;37.50;39.40;;;;;;5087147;28;20676;-73
2022/05/31 10:18:56;;;;;;;3.05;1.50;;;37.10;39.40;;;;;;5088268;28;20192;-72
2022/05/31 10:21:42;;;;;;;1.77;1.30;;;36.90;38.80;;;;;;5086864;28;20201;-71
2022/05/31 10:24:24;;;;;;;3.38;3.17;;;37.00;39.40;;;;;;5087624;28;20174;-72
2022/05/31 10:27:11;;;;;;;2.42;1.45;;;36.70;39.10;;;;;;5085346;28;20183;-73
2022/05/31 10:29:59;;;;;;;2.13;1.30;;;37.00;38.40;;;;;;5091540;28;20198;-71
2022/05/31 10:32:34;;;;;;;0.82;0.82;;;37.10;37.90;;;;;;5078658;28;20182;-72
2022/05/31 10:35:26;;;;;;;1.05;1.00;;;37.90;38.20;;;;;;5088332;28;20212;-73
2022/05/31 10:38:10;;;;;;;0.90;0.90;;;38.10;36.50;;;;;;5090516;28;20551;-71
2022/05/31 10:40:49;;;;;;;1.15;1.05;;;37.90;36.00;;;;;;5088764;28;20206;-71
2022/05/31 10:43:33;;;;;;;1.35;1.30;;;37.50;35.60;;;;;;5081092;28;20174;-70
2022/05/31 10:46:02;;;;;;;1.27;1.17;;;37.40;36.20;;;;;;5090285;28;20177;-72
2022/05/31 10:48:28;;;;;;;1.10;1.10;;;38.30;34.20;;;;;;5083115;28;20244;-73
2022/05/31 10:51:07;;;;;;;1.42;1.33;;;37.90;35.50;;;;;;5083373;28;20675;-69
2022/05/31 10:54:00;;;;;;;1.95;1.23;;;37.40;35.40;;;;;;5085695;28;20174;-69
2022/05/31 10:56:46;;;;;;;1.15;1.00;;;36.60;36.30;;;;;;5089253;28;20227;-69
2022/05/31 10:59:25;;;;;;;2.33;1.30;;;37.00;37.50;;;;;;5083089;28;20691;-67
2022/05/31 11:01:51;;;;;;;1.23;1.23;;;38.00;36.20;;;;;;5087221;28;20201;-67
2022/05/31 11:04:44;;;;;;;1.33;1.23;;;38.30;34.60;;;;;;5086983;28;20193;-68
2022/05/31 11:07:28;;;;;;;1.65;1.27;;;38.00;33.40;;;;;;5097065;28;20174;-70
2022/05/31 11:13:09;;;;;;;1.13;1.13;;;37.00;35.00;;;;;;5084705;28;20555;-68
2022/05/31 11:15:53;;;;;;;1.08;1.08;;;37.60;35.10;;;;;;5087224;28;20192;-68
2022/05/31 11:18:40;;;;;;;1.83;1.25;;;38.00;35.00;;;;;;5084066;28;20712;-69
2022/05/31 11:21:21;;;;;;;1.63;1.00;;;37.90;33.80;;;;;;5094586;28;20715;-71
2022/05/31 11:24:04;;;;;;;1.23;1.23;;;38.30;34.10;;;;;;5089051;28;20677;-71
2022/05/31 11:26:51;;;;;;;1.77;1.27;;;38.40;34.60;;;;;;5088110;28;20649;-70
2022/05/31 11:29:37;;;;;;;1.63;1.20;;;38.70;34.90;;;;;;5091658;28;20205;-73
2022/05/31 11:32:13;;;;;;;1.08;0.82;;;38.30;34.30;;;;;;5081915;28;20207;-70
2022/05/31 11:35:00;;;;;;;1.00;1.00;;;37.90;34.50;;;;;;5088969;28;20169;-69
2022/05/31 11:37:41;;;;;;;1.85;1.20;;;37.80;35.50;;;;;;5088348;28;20178;-72
2022/05/31 11:40:33;;;;;;;3.38;3.08;;;37.90;35.70;;;;;;5086711;28;20242;-72
2022/05/31 11:43:02;;;;;;;2.08;1.85;;;38.00;36.20;;;;;;5088784;28;20181;-72
2022/05/31 11:45:34;;;;;;;3.65;2.55;;;37.30;34.40;;;;;;5085496;28;20547;-71
2022/05/31 11:48:13;;;;;;;1.55;1.10;;;36.80;35.70;;;;;;5088860;28;20166;-71
2022/05/31 11:51:17;;;;;;;2.15;1.60;;;36.70;34.70;;;;;;5099225;28;20212;-71
2022/05/31 11:53:53;;;;;;;1.40;1.17;;;36.20;36.30;;;;;;5086782;28;20171;-70
2022/05/31 11:56:47;;;;;;;5.13;1.60;;;36.40;36.30;;;;;;5084108;28;20636;-69
2022/05/31 11:59:27;;;;;;;1.73;1.48;;;36.60;34.10;;;;;;5091378;28;20262;-69
2022/05/31 12:01:56;;;;;;;1.70;1.60;;;36.70;34.80;;;;;;5088099;28;20799;-69
2022/05/31 12:04:31;;;;;;;2.63;1.58;;;36.10;36.60;;;;;;5089808;28;20798;-70
2022/05/31 12:07:10;;;;;;;2.40;1.52;;;36.10;36.10;;;;;;5088213;28;20528;-70
2022/05/31 12:09:48;;;;;;;1.83;1.25;;;36.50;36.00;;;;;;5084770;28;20566;-71
2022/05/31 12:12:30;;;;;;;1.42;1.35;;;36.80;36.40;;;;;;5086985;28;20177;-70
2022/05/31 12:15:06;;;;;;;1.40;1.30;;;36.70;37.20;;;;;;5085470;28;20204;-72
2022/05/31 12:17:44;;;;;;;1.27;1.27;;;36.80;35.50;;;;;;5085929;28;20200;-73
2022/05/31 12:20:31;;;;;;;1.38;1.38;;;36.10;36.60;;;;;;5088525;28;20204;-71
2022/05/31 12:23:11;;;;;;;1.48;1.25;;;36.50;37.00;;;;;;5090689;28;20177;-72
2022/05/31 12:25:44;;;;;;;1.02;1.02;;;36.50;36.20;;;;;;5079299;28;20530;-71
2022/05/31 12:28:18;;;;;;;2.08;1.60;;;36.70;35.90;;;;;;5086735;28;20189;-71
2022/05/31 12:30:59;;;;;;;4.10;1.20;;;37.60;34.60;;;;;;5085690;28;20603;-70
2022/05/31 12:33:47;;;;;;;0.90;0.90;;;38.20;34.60;;;;;;5089725;28;20645;-71
2022/05/31 12:36:23;;;;;;;1.92;1.20;;;39.20;32.90;;;;;;5078436;28;20175;-70
2022/05/31 12:39:19;;;;;;;1.00;1.00;;;40.10;33.20;;;;;;5084772;28;20181;-72
2022/05/31 12:41:46;;;;;;;1.73;1.25;;;41.60;31.50;;;;;;5084095;28;20280;-70
2022/05/31 12:44:31;;;;;;;1.30;1.20;;;39.80;32.60;;;;;;5082702;28;20181;-70
2022/05/31 12:47:17;;;;;;;1.17;1.08;;;39.20;33.30;;;;;;5085017;28;20540;-70
2022/05/31 12:49:57;;;;;;;0.90;0.90;;;39.60;32.80;;;;;;5095319;28;20190;-71
2022/05/31 12:55:28;;;;;;;1.05;1.05;;;43.20;31.40;;;;;;5078119;28;20186;-71
2022/05/31 12:58:35;;;;;;;1.30;1.17;;;43.00;30.60;;;;;;5089291;28;20213;-73
2022/05/31 13:01:04;;;;;;;7.93;1.45;;;44.00;30.10;;;;;;5063561;28;20213;-71
2022/05/31 13:03:32;;;;;;;0.80;0.80;;;45.00;30.50;;;;;;5083780;28;20253;-71
2022/05/31 13:06:08;;;;;;;0.90;0.90;;;45.50;29.00;;;;;;5086938;28;20709;-72
2022/05/31 13:08:52;;;;;;;1.00;0.98;;;43.40;29.20;;;;;;5089359;28;20188;-74
2022/05/31 13:20:39;;;;;;;2.47;0.90;;;47.20;28.40;;;;;;5077282;28;20271;-71
2022/05/31 13:23:19;;;;;;;1.00;0.75;;;49.40;27.80;;;;;;5080170;28;20403;-72
2022/05/31 13:25:56;;;;;;;1.00;1.00;;;48.90;27.30;;;;;;5094304;28;20197;-74
2022/05/31 13:28:35;;;;;;;4.47;1.25;;;48.50;26.90;;;;;;5078361;28;20607;-71
2022/05/31 13:31:14;;;;;;;1.13;1.00;;;47.10;27.10;;;;;;5083720;28;20199;-73
2022/05/31 13:33:40;;;;;;;1.75;0.98;;;45.90;28.10;;;;;;5085600;28;20231;-72
2022/05/31 13:36:19;;;;;;;1.30;1.20;;;44.30;28.40;;;;;;5084608;28;20628;-70
2022/05/31 13:38:46;;;;;;;2.28;1.00;;;41.90;29.10;;;;;;5100749;28;20658;-71
2022/05/31 13:41:15;;;;;;;1.00;0.98;;;39.80;30.60;;;;;;5094868;28;20209;-71
2022/05/31 13:43:51;;;;;;;1.70;1.05;;;37.50;33.20;;;;;;5082397;28;20183;-73
2022/05/31 13:46:23;;;;;;;1.25;1.15;;;35.70;34.20;;;;;;5084436;28;20177;-72
2022/05/31 13:48:53;;;;;;;1.00;1.00;;;34.40;36.10;;;;;;5080424;28;20189;-69
2022/05/31 13:51:24;;;;;;;1.17;1.08;;;33.90;35.00;;;;;;5077317;28;20183;-72
2022/05/31 13:53:52;;;;;;;0.93;0.88;;;33.70;35.40;;;;;;5078508;28;20256;-70